sensor_id;sensor_type;location;lat;lon;timestamp;noise_LAeq;noise_LA_min;noise_LA_max;noise_LA01;noise_LA95
72686;Laerm;61365;52.162;4.500;2023-09-12T01:43:25;47.84;30.82;64.44;;
72686;Laerm;61365;52.162;4.500;2023-09-12T01:45:54;47.80;30.85;66.62;;
72686;Laerm;61365;52.162;4.500;2023-09-12T01:48:24;47.96;30.93;67.26;;
72686;Laerm;61365;52.162;4.500;2023-09-12T01:50:52;47.67;30.98;65.61;;
72686;Laerm;61365;52.162;4.500;2023-09-12T01:53:19;48.01;31.10;66.30;;
72686;Laerm;61365;52.162;4.500;2023-09-12T01:55:47;47.70;31.03;66.24;;
72686;Laerm;61365;52.162;4.500;2023-09-12T01:58:14;47.45;30.94;64.60;;
72686;Laerm;61365;52.162;4.500;2023-09-12T02:00:40;48.24;30.98;63.88;;
72686;Laerm;61365;52.162;4.500;2023-09-12T02:03:07;48.07;31.16;64.26;;
72686;Laerm;61365;52.162;4.500;2023-09-12T02:05:33;47.75;30.92;66.00;;
72686;Laerm;61365;52.162;4.500;2023-09-12T02:07:59;47.95;31.11;64.38;;
72686;Laerm;61365;52.162;4.500;2023-09-12T02:10:28;47.92;31.04;66.01;;
72686;Laerm;61365;52.162;4.500;2023-09-12T02:12:54;47.47;30.90;65.60;;
72686;Laerm;61365;52.162;4.500;2023-09-12T02:15:20;47.07;31.06;64.00;;
72686;Laerm;61365;52.162;4.500;2023-09-12T02:17:46;47.11;31.13;65.01;;
72686;Laerm;61365;52.162;4.500;2023-09-12T02:20:16;46.70;31.15;63.13;;
72686;Laerm;61365;52.162;4.500;2023-09-12T02:22:42;46.44;31.14;63.71;;
72686;Laerm;61365;52.162;4.500;2023-09-12T02:25:08;46.81;31.17;64.10;;
72686;Laerm;61365;52.162;4.500;2023-09-12T02:27:35;46.74;31.29;64.46;;
72686;Laerm;61365;52.162;4.500;2023-09-12T02:30:01;45.76;31.15;64.46;;
72686;Laerm;61365;52.162;4.500;2023-09-12T02:32:28;46.48;31.21;64.22;;
72686;Laerm;61365;52.162;4.500;2023-09-12T02:34:55;46.46;31.06;64.83;;
72686;Laerm;61365;52.162;4.500;2023-09-12T02:37:23;46.26;31.06;63.60;;
72686;Laerm;61365;52.162;4.500;2023-09-12T02:39:49;46.68;31.05;63.64;;
72686;Laerm;61365;52.162;4.500;2023-09-12T02:42:15;46.79;31.06;66.44;;
72686;Laerm;61365;52.162;4.500;2023-09-12T02:44:43;46.68;30.94;64.94;;
72686;Laerm;61365;52.162;4.500;2023-09-12T02:47:10;46.96;31.28;64.42;;
72686;Laerm;61365;52.162;4.500;2023-09-12T02:49:36;47.05;30.92;64.72;;
72686;Laerm;61365;52.162;4.500;2023-09-12T02:52:02;47.07;31.13;64.26;;
72686;Laerm;61365;52.162;4.500;2023-09-12T02:54:28;46.77;31.17;66.10;;
72686;Laerm;61365;52.162;4.500;2023-09-12T02:56:54;46.67;31.09;62.99;;
72686;Laerm;61365;52.162;4.500;2023-09-12T02:59:23;46.12;31.27;62.88;;
72686;Laerm;61365;52.162;4.500;2023-09-12T03:01:49;47.24;31.01;64.64;;
72686;Laerm;61365;52.162;4.500;2023-09-12T03:04:15;46.79;30.36;64.34;;
72686;Laerm;61365;52.162;4.500;2023-09-12T03:06:41;47.22;31.30;64.50;;
72686;Laerm;61365;52.162;4.500;2023-09-12T03:09:07;46.45;31.22;66.60;;
72686;Laerm;61365;52.162;4.500;2023-09-12T03:11:34;46.62;31.26;65.34;;
72686;Laerm;61365;52.162;4.500;2023-09-12T03:14:00;45.49;31.00;66.21;;
72686;Laerm;61365;52.162;4.500;2023-09-12T03:16:28;43.63;32.42;56.96;;
72686;Laerm;61365;52.162;4.500;2023-09-12T03:18:54;43.70;31.77;56.97;;
72686;Laerm;61365;52.162;4.500;2023-09-12T03:21:20;45.27;31.18;63.03;;
72686;Laerm;61365;52.162;4.500;2023-09-12T03:23:47;47.02;31.06;65.49;;
72686;Laerm;61365;52.162;4.500;2023-09-12T03:26:14;46.81;31.32;66.22;;
72686;Laerm;61365;52.162;4.500;2023-09-12T03:28:40;46.21;30.77;64.39;;
72686;Laerm;61365;52.162;4.500;2023-09-12T03:31:09;46.78;30.86;66.87;;
72686;Laerm;61365;52.162;4.500;2023-09-12T03:33:37;47.11;30.78;66.26;;
72686;Laerm;61365;52.162;4.500;2023-09-12T03:36:05;46.74;31.11;64.93;;
72686;Laerm;61365;52.162;4.500;2023-09-12T03:38:33;46.56;31.27;66.77;;
72686;Laerm;61365;52.162;4.500;2023-09-12T03:40:59;46.47;30.84;63.44;;
72686;Laerm;61365;52.162;4.500;2023-09-12T03:43:26;46.62;30.85;63.79;;
72686;Laerm;61365;52.162;4.500;2023-09-12T03:45:52;46.26;31.29;64.51;;
72686;Laerm;61365;52.162;4.500;2023-09-12T03:48:19;46.86;31.12;63.72;;
72686;Laerm;61365;52.162;4.500;2023-09-12T03:50:45;46.50;31.32;66.51;;
72686;Laerm;61365;52.162;4.500;2023-09-12T03:55:39;45.97;31.12;64.04;;
72686;Laerm;61365;52.162;4.500;2023-09-12T03:58:05;46.62;31.26;64.26;;
72686;Laerm;61365;52.162;4.500;2023-09-12T04:00:31;47.05;30.96;65.32;;
72686;Laerm;61365;52.162;4.500;2023-09-12T04:02:57;46.84;31.03;63.44;;
72686;Laerm;61365;52.162;4.500;2023-09-12T04:05:25;46.70;31.22;65.65;;
72686;Laerm;61365;52.162;4.500;2023-09-12T04:07:51;46.40;31.10;65.45;;
72686;Laerm;61365;52.162;4.500;2023-09-12T04:10:19;46.52;31.21;64.42;;
72686;Laerm;61365;52.162;4.500;2023-09-12T04:12:45;47.12;30.99;65.35;;
72686;Laerm;61365;52.162;4.500;2023-09-12T04:15:12;46.96;31.09;66.46;;
72686;Laerm;61365;52.162;4.500;2023-09-12T04:17:38;46.32;31.37;64.43;;
72686;Laerm;61365;52.162;4.500;2023-09-12T04:20:04;46.23;31.03;66.61;;
72686;Laerm;61365;52.162;4.500;2023-09-12T04:22:30;46.81;31.03;64.49;;
72686;Laerm;61365;52.162;4.500;2023-09-12T04:24:56;46.36;31.23;64.60;;
72686;Laerm;61365;52.162;4.500;2023-09-12T04:27:23;46.63;31.26;64.54;;
72686;Laerm;61365;52.162;4.500;2023-09-12T04:29:49;46.87;30.86;64.59;;
72686;Laerm;61365;52.162;4.500;2023-09-12T04:32:15;45.58;31.26;64.66;;
72686;Laerm;61365;52.162;4.500;2023-09-12T04:34:43;45.90;31.07;63.90;;
72686;Laerm;61365;52.162;4.500;2023-09-12T04:37:09;45.73;30.52;64.61;;
72686;Laerm;61365;52.162;4.500;2023-09-12T04:39:35;46.39;31.32;66.30;;
72686;Laerm;61365;52.162;4.500;2023-09-12T04:42:01;45.17;31.19;62.69;;
72686;Laerm;61365;52.162;4.500;2023-09-12T04:44:41;46.02;31.15;66.43;;
72686;Laerm;61365;52.162;4.500;2023-09-12T04:47:08;45.78;31.45;66.23;;
72686;Laerm;61365;52.162;4.500;2023-09-12T04:49:34;45.61;31.12;64.02;;
72686;Laerm;61365;52.162;4.500;2023-09-12T04:52:00;45.67;31.06;64.29;;
72686;Laerm;61365;52.162;4.500;2023-09-12T04:54:26;44.45;31.40;62.75;;
72686;Laerm;61365;52.162;4.500;2023-09-12T04:56:52;45.77;31.08;64.17;;
72686;Laerm;61365;52.162;4.500;2023-09-12T04:59:19;44.95;31.29;65.21;;
72686;Laerm;61365;52.162;4.500;2023-09-12T05:01:45;45.68;31.30;64.08;;
72686;Laerm;61365;52.162;4.500;2023-09-12T05:04:11;45.32;31.12;62.68;;
72686;Laerm;61365;52.162;4.500;2023-09-12T05:06:37;45.66;31.09;65.79;;
72686;Laerm;61365;52.162;4.500;2023-09-12T05:09:04;45.63;31.14;66.49;;
72686;Laerm;61365;52.162;4.500;2023-09-12T05:11:31;46.29;31.11;64.72;;
72686;Laerm;61365;52.162;4.500;2023-09-12T05:13:57;45.76;31.09;63.87;;
72686;Laerm;61365;52.162;4.500;2023-09-12T05:16:25;46.43;31.07;64.69;;
72686;Laerm;61365;52.162;4.500;2023-09-12T05:18:51;45.72;31.07;64.20;;
72686;Laerm;61365;52.162;4.500;2023-09-12T05:21:17;45.52;31.36;64.27;;
72686;Laerm;61365;52.162;4.500;2023-09-12T05:23:43;46.09;31.08;63.54;;
72686;Laerm;61365;52.162;4.500;2023-09-12T05:26:09;46.18;31.10;64.60;;
72686;Laerm;61365;52.162;4.500;2023-09-12T05:28:35;45.45;31.14;64.33;;
72686;Laerm;61365;52.162;4.500;2023-09-12T05:31:02;46.48;30.84;63.84;;
72686;Laerm;61365;52.162;4.500;2023-09-12T05:33:28;46.26;31.26;65.73;;
72686;Laerm;61365;52.162;4.500;2023-09-12T05:35:54;46.17;31.09;65.47;;
72686;Laerm;61365;52.162;4.500;2023-09-12T05:38:20;46.34;31.17;63.73;;
72686;Laerm;61365;52.162;4.500;2023-09-12T05:40:47;46.04;31.00;65.36;;
72686;Laerm;61365;52.162;4.500;2023-09-12T05:43:16;45.77;31.05;66.39;;
72686;Laerm;61365;52.162;4.500;2023-09-12T05:45:43;46.32;31.30;64.08;;
72686;Laerm;61365;52.162;4.500;2023-09-12T05:48:09;46.57;31.26;65.23;;
72686;Laerm;61365;52.162;4.500;2023-09-12T05:50:39;45.81;31.15;64.81;;
72686;Laerm;61365;52.162;4.500;2023-09-12T05:53:05;46.43;31.06;63.55;;
72686;Laerm;61365;52.162;4.500;2023-09-12T05:55:31;46.63;30.89;62.78;;
72686;Laerm;61365;52.162;4.500;2023-09-12T05:57:57;46.31;31.25;66.65;;
72686;Laerm;61365;52.162;4.500;2023-09-12T06:00:23;46.91;31.08;63.08;;
72686;Laerm;61365;52.162;4.500;2023-09-12T06:02:49;46.52;31.01;66.56;;
72686;Laerm;61365;52.162;4.500;2023-09-12T06:05:16;45.84;31.00;66.07;;
72686;Laerm;61365;52.162;4.500;2023-09-12T06:07:42;46.27;31.23;64.87;;
72686;Laerm;61365;52.162;4.500;2023-09-12T06:10:08;45.62;31.16;63.97;;
72686;Laerm;61365;52.162;4.500;2023-09-12T06:12:35;45.38;31.28;66.47;;
72686;Laerm;61365;52.162;4.500;2023-09-12T06:15:03;45.57;31.14;64.38;;
72686;Laerm;61365;52.162;4.500;2023-09-12T06:17:30;45.31;31.18;62.68;;
72686;Laerm;61365;52.162;4.500;2023-09-12T06:19:57;45.68;31.06;62.79;;
72686;Laerm;61365;52.162;4.500;2023-09-12T06:22:23;45.45;31.12;62.72;;
72686;Laerm;61365;52.162;4.500;2023-09-12T06:24:50;45.11;30.94;63.25;;
72686;Laerm;61365;52.162;4.500;2023-09-12T06:27:16;45.55;31.06;64.17;;
72686;Laerm;61365;52.162;4.500;2023-09-12T06:29:46;46.03;31.16;65.42;;
72686;Laerm;61365;52.162;4.500;2023-09-12T06:32:17;45.36;31.12;62.91;;
72686;Laerm;61365;52.162;4.500;2023-09-12T06:34:43;45.65;31.13;63.62;;
72686;Laerm;61365;52.162;4.500;2023-09-12T06:37:13;46.07;31.03;63.51;;
72686;Laerm;61365;52.162;4.500;2023-09-12T06:39:39;45.93;31.14;64.85;;
72686;Laerm;61365;52.162;4.500;2023-09-12T06:42:06;46.58;31.29;64.28;;
72686;Laerm;61365;52.162;4.500;2023-09-12T06:44:32;46.02;31.08;63.89;;
72686;Laerm;61365;52.162;4.500;2023-09-12T06:46:58;45.75;31.18;64.91;;
72686;Laerm;61365;52.162;4.500;2023-09-12T06:49:24;46.08;31.05;64.28;;
72686;Laerm;61365;52.162;4.500;2023-09-12T06:51:50;46.41;30.95;64.82;;
72686;Laerm;61365;52.162;4.500;2023-09-12T06:54:17;46.98;31.08;64.40;;
72686;Laerm;61365;52.162;4.500;2023-09-12T06:56:43;46.37;31.05;64.16;;
72686;Laerm;61365;52.162;4.500;2023-09-12T06:59:09;46.84;31.02;66.01;;
72686;Laerm;61365;52.162;4.500;2023-09-12T07:01:35;47.94;31.00;65.40;;
72686;Laerm;61365;52.162;4.500;2023-09-12T07:04:03;47.69;30.86;64.76;;
72686;Laerm;61365;52.162;4.500;2023-09-12T07:06:29;47.90;31.12;64.99;;
72686;Laerm;61365;52.162;4.500;2023-09-12T07:08:55;47.92;31.11;65.85;;
72686;Laerm;61365;52.162;4.500;2023-09-12T07:11:21;48.17;31.06;66.67;;
72686;Laerm;61365;52.162;4.500;2023-09-12T07:13:47;47.60;31.13;66.86;;
72686;Laerm;61365;52.162;4.500;2023-09-12T07:16:13;48.25;30.82;63.74;;
72686;Laerm;61365;52.162;4.500;2023-09-12T07:18:39;48.35;30.95;66.54;;
72686;Laerm;61365;52.162;4.500;2023-09-12T07:21:05;48.53;30.83;66.52;;
72686;Laerm;61365;52.162;4.500;2023-09-12T07:23:33;48.69;31.02;66.55;;
72686;Laerm;61365;52.162;4.500;2023-09-12T07:25:59;48.68;30.82;67.90;;
72686;Laerm;61365;52.162;4.500;2023-09-12T07:28:26;48.35;31.08;64.61;;
72686;Laerm;61365;52.162;4.500;2023-09-12T07:30:54;48.61;31.03;66.72;;
72686;Laerm;61365;52.162;4.500;2023-09-12T07:33:20;48.03;30.93;66.33;;
72686;Laerm;61365;52.162;4.500;2023-09-12T07:35:48;47.55;31.03;66.09;;
72686;Laerm;61365;52.162;4.500;2023-09-12T07:38:14;47.64;30.94;66.85;;
72686;Laerm;61365;52.162;4.500;2023-09-12T07:40:43;48.04;30.98;64.65;;
72686;Laerm;61365;52.162;4.500;2023-09-12T07:43:09;48.50;30.93;66.19;;
72686;Laerm;61365;52.162;4.500;2023-09-12T07:45:36;48.44;31.24;66.15;;
72686;Laerm;61365;52.162;4.500;2023-09-12T07:48:06;48.56;31.29;66.91;;
72686;Laerm;61365;52.162;4.500;2023-09-12T07:50:33;48.94;30.96;66.38;;
72686;Laerm;61365;52.162;4.500;2023-09-12T07:53:00;49.15;31.10;66.44;;
72686;Laerm;61365;52.162;4.500;2023-09-12T07:55:26;49.26;31.05;66.75;;
72686;Laerm;61365;52.162;4.500;2023-09-12T07:57:56;49.38;30.80;66.45;;
72686;Laerm;61365;52.162;4.500;2023-09-12T08:00:22;49.59;31.14;67.63;;
72686;Laerm;61365;52.162;4.500;2023-09-12T08:02:52;49.81;31.03;66.80;;
72686;Laerm;61365;52.162;4.500;2023-09-12T08:05:18;49.65;30.72;66.49;;
72686;Laerm;61365;52.162;4.500;2023-09-12T08:07:45;50.05;30.73;66.39;;
72686;Laerm;61365;52.162;4.500;2023-09-12T08:10:14;50.65;30.79;66.68;;
72686;Laerm;61365;52.162;4.500;2023-09-12T08:12:40;50.56;31.00;65.37;;
72686;Laerm;61365;52.162;4.500;2023-09-12T08:15:08;50.76;30.86;66.57;;
72686;Laerm;61365;52.162;4.500;2023-09-12T08:17:34;51.01;30.74;66.55;;
72686;Laerm;61365;52.162;4.500;2023-09-12T08:20:00;51.34;30.77;66.18;;
72686;Laerm;61365;52.162;4.500;2023-09-12T08:22:27;50.71;30.90;67.24;;
72686;Laerm;61365;52.162;4.500;2023-09-12T08:24:53;50.70;31.00;66.46;;
72686;Laerm;61365;52.162;4.500;2023-09-12T08:27:19;50.87;30.90;66.88;;
72686;Laerm;61365;52.162;4.500;2023-09-12T08:29:46;51.21;30.69;66.93;;
72686;Laerm;61365;52.162;4.500;2023-09-12T08:32:14;50.74;30.81;66.40;;
72686;Laerm;61365;52.162;4.500;2023-09-12T08:34:40;51.21;30.56;66.86;;
72686;Laerm;61365;52.162;4.500;2023-09-12T08:37:06;51.43;30.82;66.87;;
72686;Laerm;61365;52.162;4.500;2023-09-12T08:39:43;51.24;30.62;66.74;;
72686;Laerm;61365;52.162;4.500;2023-09-12T08:42:12;52.07;30.70;67.00;;
72686;Laerm;61365;52.162;4.500;2023-09-12T08:44:40;51.97;30.73;67.51;;
72686;Laerm;61365;52.162;4.500;2023-09-12T08:47:08;52.47;30.80;66.88;;
72686;Laerm;61365;52.162;4.500;2023-09-12T08:49:36;52.35;30.79;66.89;;
72686;Laerm;61365;52.162;4.500;2023-09-12T08:52:08;52.58;30.75;66.88;;
72686;Laerm;61365;52.162;4.500;2023-09-12T08:54:34;52.87;30.87;66.87;;
72686;Laerm;61365;52.162;4.500;2023-09-12T08:57:01;53.13;30.65;68.70;;
72686;Laerm;61365;52.162;4.500;2023-09-12T08:59:31;53.20;30.89;67.81;;
72686;Laerm;61365;52.162;4.500;2023-09-12T09:01:59;53.10;30.85;67.32;;
72686;Laerm;61365;52.162;4.500;2023-09-12T09:04:28;53.50;30.65;67.19;;
72686;Laerm;61365;52.162;4.500;2023-09-12T09:06:58;53.49;30.98;66.89;;
72686;Laerm;61365;52.162;4.500;2023-09-12T09:09:26;53.76;30.88;67.22;;
72686;Laerm;61365;52.162;4.500;2023-09-12T09:11:53;53.88;30.66;67.80;;
72686;Laerm;61365;52.162;4.500;2023-09-12T09:14:19;54.30;30.96;67.91;;
72686;Laerm;61365;52.162;4.500;2023-09-12T09:16:45;54.08;30.73;66.83;;
72686;Laerm;61365;52.162;4.500;2023-09-12T09:19:11;54.36;30.79;68.49;;
72686;Laerm;61365;52.162;4.500;2023-09-12T09:21:38;54.10;31.05;67.11;;
72686;Laerm;61365;52.162;4.500;2023-09-12T09:24:08;54.01;30.78;67.01;;
72686;Laerm;61365;52.162;4.500;2023-09-12T09:26:49;54.14;31.08;67.29;;
72686;Laerm;61365;52.162;4.500;2023-09-12T09:29:24;54.26;30.92;67.06;;
72686;Laerm;61365;52.162;4.500;2023-09-12T09:31:51;53.67;30.96;68.22;;
72686;Laerm;61365;52.162;4.500;2023-09-12T09:34:20;54.17;31.05;69.44;;
72686;Laerm;61365;52.162;4.500;2023-09-12T09:36:51;53.88;31.00;67.80;;
72686;Laerm;61365;52.162;4.500;2023-09-12T09:39:19;54.15;30.76;67.26;;
72686;Laerm;61365;52.162;4.500;2023-09-12T09:41:50;54.25;30.94;67.19;;
72686;Laerm;61365;52.162;4.500;2023-09-12T09:44:17;54.08;30.95;66.89;;
72686;Laerm;61365;52.162;4.500;2023-09-12T09:46:45;54.17;30.90;67.21;;
72686;Laerm;61365;52.162;4.500;2023-09-12T09:49:14;54.62;31.07;67.18;;
72686;Laerm;61365;52.162;4.500;2023-09-12T09:51:41;54.24;30.82;67.83;;
72686;Laerm;61365;52.162;4.500;2023-09-12T09:54:09;54.06;30.85;66.80;;
72686;Laerm;61365;52.162;4.500;2023-09-12T09:56:54;53.98;30.81;67.81;;
72686;Laerm;61365;52.162;4.500;2023-09-12T09:59:25;54.03;30.99;67.41;;
72686;Laerm;61365;52.162;4.500;2023-09-12T10:01:56;54.13;30.72;67.09;;
72686;Laerm;61365;52.162;4.500;2023-09-12T10:04:23;54.10;30.87;67.78;;
72686;Laerm;61365;52.162;4.500;2023-09-12T10:06:49;54.01;31.14;69.20;;
72686;Laerm;61365;52.162;4.500;2023-09-12T10:09:16;53.99;30.63;67.14;;
72686;Laerm;61365;52.162;4.500;2023-09-12T10:11:43;54.15;30.88;67.55;;
72686;Laerm;61365;52.162;4.500;2023-09-12T10:14:12;53.90;31.12;67.51;;
72686;Laerm;61365;52.162;4.500;2023-09-12T10:16:46;53.96;31.04;67.29;;
72686;Laerm;61365;52.162;4.500;2023-09-12T10:24:35;53.63;30.93;67.32;;
72686;Laerm;61365;52.162;4.500;2023-09-12T10:27:06;53.61;31.02;66.87;;
72686;Laerm;61365;52.162;4.500;2023-09-12T10:29:32;53.99;30.80;67.38;;
72686;Laerm;61365;52.162;4.500;2023-09-12T10:32:01;54.25;30.97;66.79;;
72686;Laerm;61365;52.162;4.500;2023-09-12T10:34:30;53.96;31.07;69.13;;
72686;Laerm;61365;52.162;4.500;2023-09-12T10:37:00;54.08;30.96;66.96;;
72686;Laerm;61365;52.162;4.500;2023-09-12T10:39:32;54.34;30.79;68.03;;
72686;Laerm;61365;52.162;4.500;2023-09-12T10:41:59;54.38;31.05;67.19;;
72686;Laerm;61365;52.162;4.500;2023-09-12T10:44:25;54.34;31.01;67.00;;
72686;Laerm;61365;52.162;4.500;2023-09-12T10:46:53;54.07;31.28;67.00;;
72686;Laerm;61365;52.162;4.500;2023-09-12T10:49:20;54.05;30.88;66.93;;
72686;Laerm;61365;52.162;4.500;2023-09-12T10:51:47;53.72;30.73;68.13;;
72686;Laerm;61365;52.162;4.500;2023-09-12T10:54:16;53.99;30.97;67.71;;
72686;Laerm;61365;52.162;4.500;2023-09-12T10:56:42;53.71;30.84;67.01;;
72686;Laerm;61365;52.162;4.500;2023-09-12T10:59:11;53.69;30.84;68.53;;
72686;Laerm;61365;52.162;4.500;2023-09-12T11:01:39;53.90;30.98;66.97;;
72686;Laerm;61365;52.162;4.500;2023-09-12T11:06:48;53.28;30.92;68.18;;
72686;Laerm;61365;52.162;4.500;2023-09-12T11:11:42;53.70;30.97;67.28;;
72686;Laerm;61365;52.162;4.500;2023-09-12T11:14:09;53.57;30.65;67.94;;
72686;Laerm;61365;52.162;4.500;2023-09-12T11:16:35;53.73;30.82;67.09;;
72686;Laerm;61365;52.162;4.500;2023-09-12T11:19:19;53.69;30.98;67.38;;
72686;Laerm;61365;52.162;4.500;2023-09-12T11:21:54;53.61;31.02;66.86;;
72686;Laerm;61365;52.162;4.500;2023-09-12T11:24:21;53.48;31.02;67.13;;
72686;Laerm;61365;52.162;4.500;2023-09-12T11:26:56;53.41;31.10;68.57;;
72686;Laerm;61365;52.162;4.500;2023-09-12T11:29:43;53.34;31.05;67.03;;
72686;Laerm;61365;52.162;4.500;2023-09-12T11:32:09;53.64;31.09;67.59;;
72686;Laerm;61365;52.162;4.500;2023-09-12T11:34:43;53.17;30.57;66.73;;
72686;Laerm;61365;52.162;4.500;2023-09-12T11:37:22;53.85;30.93;70.24;;
72686;Laerm;61365;52.162;4.500;2023-09-12T11:39:48;53.66;30.89;67.93;;
72686;Laerm;61365;52.162;4.500;2023-09-12T11:42:16;53.61;30.96;68.27;;
72686;Laerm;61365;52.162;4.500;2023-09-12T11:44:42;53.88;30.89;66.94;;
72686;Laerm;61365;52.162;4.500;2023-09-12T11:47:11;54.24;31.00;68.74;;
72686;Laerm;61365;52.162;4.500;2023-09-12T11:49:39;54.57;30.96;67.68;;
72686;Laerm;61365;52.162;4.500;2023-09-12T11:52:14;54.59;30.95;66.74;;
72686;Laerm;61365;52.162;4.500;2023-09-12T11:54:43;54.15;30.89;66.77;;
72686;Laerm;61365;52.162;4.500;2023-09-12T11:57:13;54.28;30.84;67.25;;
72686;Laerm;61365;52.162;4.500;2023-09-12T11:59:41;54.35;30.32;67.14;;
72686;Laerm;61365;52.162;4.500;2023-09-12T12:02:11;54.25;30.95;67.00;;
72686;Laerm;61365;52.162;4.500;2023-09-12T12:04:38;54.45;30.82;67.06;;
72686;Laerm;61365;52.162;4.500;2023-09-12T12:07:05;54.58;30.87;67.16;;
72686;Laerm;61365;52.162;4.500;2023-09-12T12:09:31;54.44;30.96;67.90;;
72686;Laerm;61365;52.162;4.500;2023-09-12T12:14:35;54.46;31.14;67.05;;
72686;Laerm;61365;52.162;4.500;2023-09-12T12:17:09;54.52;31.08;66.92;;
72686;Laerm;61365;52.162;4.500;2023-09-12T12:19:36;54.65;30.86;68.91;;
72686;Laerm;61365;52.162;4.500;2023-09-12T12:22:04;54.47;31.17;67.05;;
72686;Laerm;61365;52.162;4.500;2023-09-12T12:24:46;54.28;31.05;68.14;;
72686;Laerm;61365;52.162;4.500;2023-09-12T12:27:16;43.18;31.95;57.13;;
72686;Laerm;61365;52.162;4.500;2023-09-12T12:29:42;54.37;31.08;69.15;;
72686;Laerm;61365;52.162;4.500;2023-09-12T12:32:10;54.37;31.06;66.93;;
72686;Laerm;61365;52.162;4.500;2023-09-12T12:34:37;54.15;31.26;67.19;;
72686;Laerm;61365;52.162;4.500;2023-09-12T12:37:03;54.14;31.11;67.01;;
72686;Laerm;61365;52.162;4.500;2023-09-12T12:39:31;53.69;31.34;67.07;;
72686;Laerm;61365;52.162;4.500;2023-09-12T12:41:57;53.36;31.23;67.18;;
72686;Laerm;61365;52.162;4.500;2023-09-12T12:44:32;53.61;31.20;66.97;;
72686;Laerm;61365;52.162;4.500;2023-09-12T12:47:03;53.50;30.76;68.87;;
72686;Laerm;61365;52.162;4.500;2023-09-12T12:49:39;53.66;31.13;66.91;;
72686;Laerm;61365;52.162;4.500;2023-09-12T12:52:09;53.67;31.17;66.65;;
72686;Laerm;61365;52.162;4.500;2023-09-12T12:54:42;53.38;31.05;66.93;;
72686;Laerm;61365;52.162;4.500;2023-09-12T12:57:10;53.61;31.19;67.23;;
72686;Laerm;61365;52.162;4.500;2023-09-12T12:59:38;53.31;31.03;66.52;;
72686;Laerm;61365;52.162;4.500;2023-09-12T13:02:05;53.11;31.17;68.39;;
72686;Laerm;61365;52.162;4.500;2023-09-12T13:04:37;53.25;31.27;66.81;;
72686;Laerm;61365;52.162;4.500;2023-09-12T13:07:04;52.93;31.14;66.84;;
72686;Laerm;61365;52.162;4.500;2023-09-12T13:09:32;53.28;31.06;67.66;;
72686;Laerm;61365;52.162;4.500;2023-09-12T13:11:58;53.25;31.15;67.07;;
72686;Laerm;61365;52.162;4.500;2023-09-12T13:14:25;52.67;31.26;66.63;;
72686;Laerm;61365;52.162;4.500;2023-09-12T13:16:59;53.11;30.96;67.30;;
72686;Laerm;61365;52.162;4.500;2023-09-12T13:19:26;53.11;31.07;67.01;;
72686;Laerm;61365;52.162;4.500;2023-09-12T13:21:52;53.49;30.94;67.96;;
72686;Laerm;61365;52.162;4.500;2023-09-12T13:24:18;53.31;31.05;67.22;;
72686;Laerm;61365;52.162;4.500;2023-09-12T13:26:45;52.95;30.98;66.84;;
72686;Laerm;61365;52.162;4.500;2023-09-12T13:29:11;53.57;30.97;66.83;;
72686;Laerm;61365;52.162;4.500;2023-09-12T13:31:37;49.88;31.27;66.69;;
72686;Laerm;61365;52.162;4.500;2023-09-12T13:34:03;43.34;32.22;56.32;;
72686;Laerm;61365;52.162;4.500;2023-09-12T13:36:29;51.15;30.95;67.06;;
72686;Laerm;61365;52.162;4.500;2023-09-12T13:38:56;54.03;30.85;67.53;;
72686;Laerm;61365;52.162;4.500;2023-09-12T13:41:22;47.58;31.13;66.35;;
72686;Laerm;61365;52.162;4.500;2023-09-12T13:43:49;43.32;32.07;56.80;;
72686;Laerm;61365;52.162;4.500;2023-09-12T13:46:15;43.13;31.71;57.01;;
72686;Laerm;61365;52.162;4.500;2023-09-12T13:48:42;43.32;31.74;57.46;;
72686;Laerm;61365;52.162;4.500;2023-09-12T13:51:08;42.97;31.96;55.94;;
72686;Laerm;61365;52.162;4.500;2023-09-12T13:53:34;43.03;32.08;56.84;;
72686;Laerm;61365;52.162;4.500;2023-09-12T13:56:00;42.98;32.19;56.84;;
72686;Laerm;61365;52.162;4.500;2023-09-12T13:58:28;43.35;32.46;57.30;;
72686;Laerm;61365;52.162;4.500;2023-09-12T14:00:54;43.26;32.05;57.62;;
72686;Laerm;61365;52.162;4.500;2023-09-12T14:03:20;43.03;32.54;57.14;;
72686;Laerm;61365;52.162;4.500;2023-09-12T14:05:46;42.91;32.16;56.25;;
72686;Laerm;61365;52.162;4.500;2023-09-12T14:08:12;42.93;31.63;57.82;;
72686;Laerm;61365;52.162;4.500;2023-09-12T14:10:38;42.75;31.90;56.89;;
72686;Laerm;61365;52.162;4.500;2023-09-12T14:13:04;49.02;31.21;66.09;;
72686;Laerm;61365;52.162;4.500;2023-09-12T14:15:30;53.95;31.12;69.10;;
72686;Laerm;61365;52.162;4.500;2023-09-12T14:17:57;54.44;31.06;68.01;;
72686;Laerm;61365;52.162;4.500;2023-09-12T14:20:23;54.62;31.19;67.02;;
72686;Laerm;61365;52.162;4.500;2023-09-12T14:22:49;54.40;30.76;67.93;;
72686;Laerm;61365;52.162;4.500;2023-09-12T14:25:15;54.41;31.06;67.12;;
72686;Laerm;61365;52.162;4.500;2023-09-12T14:27:42;54.66;30.82;69.02;;
72686;Laerm;61365;52.162;4.500;2023-09-12T14:30:10;54.56;30.99;66.88;;
72686;Laerm;61365;52.162;4.500;2023-09-12T14:32:37;54.47;31.20;67.04;;
72686;Laerm;61365;52.162;4.500;2023-09-12T14:35:04;54.55;31.04;68.67;;
72686;Laerm;61365;52.162;4.500;2023-09-12T14:37:30;54.90;30.35;67.90;;
72686;Laerm;61365;52.162;4.500;2023-09-12T14:39:56;54.74;31.01;68.36;;
72686;Laerm;61365;52.162;4.500;2023-09-12T14:42:22;54.45;31.30;67.31;;
72686;Laerm;61365;52.162;4.500;2023-09-12T14:44:48;54.47;31.09;67.29;;
72686;Laerm;61365;52.162;4.500;2023-09-12T14:47:14;54.28;31.19;67.00;;
72686;Laerm;61365;52.162;4.500;2023-09-12T14:49:41;54.98;31.25;67.16;;
72686;Laerm;61365;52.162;4.500;2023-09-12T14:52:07;54.50;31.36;67.86;;
72686;Laerm;61365;52.162;4.500;2023-09-12T14:54:33;54.95;31.18;66.74;;
72686;Laerm;61365;52.162;4.500;2023-09-12T14:56:59;54.64;31.17;67.04;;
72686;Laerm;61365;52.162;4.500;2023-09-12T14:59:25;54.55;30.98;67.78;;
72686;Laerm;61365;52.162;4.500;2023-09-12T15:01:52;54.61;31.16;68.93;;
72686;Laerm;61365;52.162;4.500;2023-09-12T15:04:18;54.53;31.20;66.87;;
72686;Laerm;61365;52.162;4.500;2023-09-12T15:06:44;54.82;31.16;67.47;;
72686;Laerm;61365;52.162;4.500;2023-09-12T15:09:10;55.01;31.11;66.98;;
72686;Laerm;61365;52.162;4.500;2023-09-12T15:11:36;55.12;31.25;67.25;;
72686;Laerm;61365;52.162;4.500;2023-09-12T15:14:03;54.91;31.11;68.48;;
72686;Laerm;61365;52.162;4.500;2023-09-12T15:16:29;54.70;31.12;66.83;;
72686;Laerm;61365;52.162;4.500;2023-09-12T15:19:00;54.71;31.21;67.04;;
72686;Laerm;61365;52.162;4.500;2023-09-12T15:21:28;54.80;31.00;67.15;;
72686;Laerm;61365;52.162;4.500;2023-09-12T15:23:54;54.48;31.06;66.88;;
72686;Laerm;61365;52.162;4.500;2023-09-12T15:26:20;54.48;31.06;66.75;;
72686;Laerm;61365;52.162;4.500;2023-09-12T15:28:46;54.44;31.43;68.93;;
72686;Laerm;61365;52.162;4.500;2023-09-12T15:31:12;54.49;31.26;67.09;;
72686;Laerm;61365;52.162;4.500;2023-09-12T15:33:39;54.40;30.95;67.04;;
72686;Laerm;61365;52.162;4.500;2023-09-12T15:36:05;54.42;31.18;67.70;;
72686;Laerm;61365;52.162;4.500;2023-09-12T15:38:31;54.48;31.13;68.51;;
72686;Laerm;61365;52.162;4.500;2023-09-12T15:40:57;54.63;31.06;67.26;;
72686;Laerm;61365;52.162;4.500;2023-09-12T15:43:26;54.63;31.15;67.50;;